Time;durP1;ratioP1;P1;durP2;ratioP2;P2;SDS_P1;SDS_P2;PMS_P1;PMS_P2;Temp;Humidity;BMP_temperature;BMP_pressure;BME280_temperature;BME280_humidity;BME280_pressure;Samples;Min_cycle;Max_cycle;Signal;HPM_P1;HPM_P2
2024/01/23 00:02:22;;;;;;;;;;;16.30;47.80;;;;;;5090872;28;19920;-70
2024/01/23 00:04:47;;;;;;;;;;;16.30;47.80;;;;;;5091075;28;19966;-71
2024/01/23 00:07:16;;;;;;;;;;;16.30;47.80;;;;;;5091851;28;19966;-70
2024/01/23 00:09:41;;;;;;;;;;;16.30;47.90;;;;;;5092108;28;19926;-71
2024/01/23 00:12:07;;;;;;;;;;;16.20;47.80;;;;;;5090908;28;19920;-70
2024/01/23 00:14:33;;;;;;;;;;;16.20;47.80;;;;;;5091171;28;19927;-71
2024/01/23 00:17:02;;;;;;;;;;;16.20;47.80;;;;;;5091130;28;19920;-71
2024/01/23 00:19:27;;;;;;;;;;;16.20;47.90;;;;;;5092220;28;20303;-71
2024/01/23 00:21:53;;;;;;;;;;;16.20;47.90;;;;;;5090791;28;19920;-71
2024/01/23 00:24:18;;;;;;;;;;;16.20;47.90;;;;;;5091104;28;19928;-72
2024/01/23 00:26:44;;;;;;;;;;;16.20;47.90;;;;;;5090735;28;20501;-71
2024/01/23 00:29:09;;;;;;;;;;;16.10;47.90;;;;;;5090926;28;19920;-71
2024/01/23 00:31:36;;;;;;;;;;;16.10;47.90;;;;;;5090989;28;19967;-70
2024/01/23 00:34:02;;;;;;;;;;;16.10;47.90;;;;;;5090639;28;19966;-70
2024/01/23 00:36:27;;;;;;;;;;;16.10;47.90;;;;;;5091096;28;19967;-71
2024/01/23 00:38:53;;;;;;;;;;;16.10;47.90;;;;;;5091933;28;20364;-70
2024/01/23 00:41:18;;;;;;;;;;;16.10;47.90;;;;;;5090492;28;19924;-71
2024/01/23 00:43:44;;;;;;;;;;;16.10;47.90;;;;;;5090555;28;19978;-70
2024/01/23 00:46:10;;;;;;;;;;;16.10;47.90;;;;;;5092107;28;19966;-71
2024/01/23 00:48:35;;;;;;;;;;;16.00;47.90;;;;;;5091902;28;19920;-70
2024/01/23 00:51:01;;;;;;;;;;;16.50;48.10;;;;;;5094532;28;19920;-70
2024/01/23 00:53:29;;;;;;;;;;;16.90;47.40;;;;;;5094691;28;20425;-70
2024/01/23 00:55:58;;;;;;;;;;;17.20;46.70;;;;;;5094382;28;20287;-70
2024/01/23 00:58:24;;;;;;;;;;;17.60;46.20;;;;;;5094392;28;20354;-71
2024/01/23 01:00:49;;;;;;;;;;;18.10;45.40;;;;;;5094365;28;19979;-71
2024/01/23 01:03:15;;;;;;;;;;;18.50;44.70;;;;;;5094337;28;19920;-70
2024/01/23 01:05:41;;;;;;;;;;;19.00;43.50;;;;;;5094076;28;19960;-70
2024/01/23 01:08:07;;;;;;;;;;;19.70;42.60;;;;;;5095252;28;20007;-70
2024/01/23 01:10:33;;;;;;;;;;;20.20;41.50;;;;;;5093748;28;20034;-70
2024/01/23 01:12:58;;;;;;;;;;;20.80;40.90;;;;;;5095164;28;20162;-70
2024/01/23 01:15:24;;;;;;;;;;;21.20;40.10;;;;;;5094019;28;19928;-70
2024/01/23 01:17:50;;;;;;;;;;;21.60;39.30;;;;;;5093767;28;19920;-71
2024/01/23 01:20:19;;;;;;;;;;;22.00;38.60;;;;;;5094906;28;19945;-70
2024/01/23 01:22:44;;;;;;;;;;;22.20;38.10;;;;;;5093505;28;20347;-70
2024/01/23 01:25:10;;;;;;;;;;;22.50;37.80;;;;;;5093670;28;19958;-71
2024/01/23 01:27:35;;;;;;;;;;;22.60;37.20;;;;;;5093782;28;20011;-71
2024/01/23 01:30:02;;;;;;;;;;;22.80;37.00;;;;;;5093797;28;19927;-70
2024/01/23 01:32:28;;;;;;;;;;;22.90;36.60;;;;;;5093592;28;19927;-71
2024/01/23 01:34:53;;;;;;;;;;;23.00;36.50;;;;;;5094573;28;19920;-71
2024/01/23 01:37:19;;;;;;;;;;;23.00;36.40;;;;;;5093456;28;19931;-70
2024/01/23 01:39:44;;;;;;;;;;;23.00;36.20;;;;;;5093335;28;19920;-71
2024/01/23 01:42:10;;;;;;;;;;;23.00;36.30;;;;;;5092902;28;19925;-71
2024/01/23 01:44:35;;;;;;;;;;;22.90;36.30;;;;;;5093539;28;19920;-71
2024/01/23 01:47:01;;;;;;;;;;;22.80;36.20;;;;;;5093533;28;20015;-71
2024/01/23 01:49:27;;;;;;;;;;;22.70;36.40;;;;;;5093504;28;19970;-71
2024/01/23 01:51:52;;;;;;;;;;;22.60;36.70;;;;;;5094373;28;19920;-71
2024/01/23 01:54:19;;;;;;;;;;;22.40;36.80;;;;;;5093599;28;19927;-71
2024/01/23 01:56:45;;;;;;;;;;;22.20;37.10;;;;;;5093242;28;19932;-71
2024/01/23 01:59:11;;;;;;;;;;;22.10;37.40;;;;;;5094179;28;19967;-71
2024/01/23 02:01:36;;;;;;;;;;;21.90;37.60;;;;;;5092801;28;20006;-73
2024/01/23 02:04:02;;;;;;;;;;;21.80;37.70;;;;;;5094237;28;19924;-71
2024/01/23 02:06:28;;;;;;;;;;;21.70;37.90;;;;;;5127300;27;19927;-70
2024/01/23 02:08:54;;;;;;;;;;;21.50;38.20;;;;;;5092785;28;20299;-71
2024/01/23 02:11:20;;;;;;;;;;;21.50;38.40;;;;;;5092949;28;20042;-71
2024/01/23 02:13:46;;;;;;;;;;;21.40;38.40;;;;;;5092577;28;20006;-70
2024/01/23 02:16:11;;;;;;;;;;;21.30;38.50;;;;;;5093986;28;19924;-71
2024/01/23 02:18:37;;;;;;;;;;;21.30;38.50;;;;;;5092933;28;19984;-71
2024/01/23 02:21:03;;;;;;;;;;;21.30;38.40;;;;;;5092400;28;19924;-71
2024/01/23 02:23:29;;;;;;;;;;;21.30;38.30;;;;;;5093875;28;19920;-70
2024/01/23 02:25:55;;;;;;;;;;;21.30;38.30;;;;;;5092809;28;19920;-71
2024/01/23 02:28:20;;;;;;;;;;;21.40;38.30;;;;;;5092299;28;19920;-71
2024/01/23 02:30:46;;;;;;;;;;;21.40;38.10;;;;;;5092327;28;19977;-71
2024/01/23 02:33:13;;;;;;;;;;;21.40;37.90;;;;;;5092527;28;19920;-71
2024/01/23 02:35:39;;;;;;;;;;;21.50;38.00;;;;;;5092269;28;20056;-71
2024/01/23 02:38:04;;;;;;;;;;;21.60;37.90;;;;;;5093429;28;19920;-70
2024/01/23 02:40:30;;;;;;;;;;;21.60;37.70;;;;;;5092032;28;19999;-70
2024/01/23 02:42:56;;;;;;;;;;;21.70;37.60;;;;;;5093484;28;20023;-71
2024/01/23 02:45:22;;;;;;;;;;;21.70;37.60;;;;;;5092297;28;19920;-70
2024/01/23 02:47:48;;;;;;;;;;;21.70;37.50;;;;;;5093754;28;20347;-70
2024/01/23 02:50:13;;;;;;;;;;;21.80;37.40;;;;;;5092286;28;19974;-71
2024/01/23 02:52:39;;;;;;;;;;;21.80;37.40;;;;;;5092132;28;20371;-71
2024/01/23 02:55:05;;;;;;;;;;;21.80;37.40;;;;;;5092133;28;20298;-71
2024/01/23 02:57:30;;;;;;;;;;;21.80;37.30;;;;;;5091723;28;20367;-71
2024/01/23 02:59:56;;;;;;;;;;;21.70;37.50;;;;;;5092963;28;19920;-71
2024/01/23 03:02:22;;;;;;;;;;;21.80;37.50;;;;;;5091673;28;19960;-70
2024/01/23 03:04:48;;;;;;;;;;;21.70;37.50;;;;;;5093096;28;20372;-70
2024/01/23 03:07:14;;;;;;;;;;;21.70;37.50;;;;;;5091914;28;19927;-70
2024/01/23 03:09:39;;;;;;;;;;;21.60;37.60;;;;;;5091584;28;20422;-70
2024/01/23 03:12:21;;;;;;;;;;;21.60;37.60;;;;;;5091282;28;19964;-71
2024/01/23 03:14:50;;;;;;;;;;;21.50;37.70;;;;;;5091955;28;19970;-71
2024/01/23 03:17:16;;;;;;;;;;;21.50;37.70;;;;;;5091803;28;19920;-71
2024/01/23 03:19:42;;;;;;;;;;;21.50;37.80;;;;;;5091590;28;20069;-71
2024/01/23 03:22:08;;;;;;;;;;;21.40;37.80;;;;;;5125511;27;19927;-71
2024/01/23 03:24:36;;;;;;;;;;;21.40;37.90;;;;;;5092605;28;19931;-72
2024/01/23 03:27:01;;;;;;;;;;;21.30;38.00;;;;;;5091581;28;19919;-71
2024/01/23 03:29:28;;;;;;;;;;;21.30;38.00;;;;;;5091288;28;20431;-71
2024/01/23 03:31:53;;;;;;;;;;;21.30;38.10;;;;;;5091496;28;19943;-71
2024/01/23 03:34:19;;;;;;;;;;;21.20;38.10;;;;;;5091557;28;19928;-71
2024/01/23 03:36:44;;;;;;;;;;;21.30;38.00;;;;;;5091311;28;19920;-70
2024/01/23 03:39:10;;;;;;;;;;;21.30;38.00;;;;;;5091486;28;19920;-71
2024/01/23 03:41:37;;;;;;;;;;;21.30;37.90;;;;;;5092174;28;19924;-71
2024/01/23 03:44:05;;;;;;;;;;;21.30;37.90;;;;;;5090961;28;19931;-71
2024/01/23 03:46:30;;;;;;;;;;;21.40;37.90;;;;;;5092452;28;20375;-71
2024/01/23 03:48:56;;;;;;;;;;;21.40;37.80;;;;;;5092432;28;19929;-71
2024/01/23 03:51:22;;;;;;;;;;;21.40;37.70;;;;;;5091421;28;19927;-71
2024/01/23 03:53:47;;;;;;;;;;;21.50;37.60;;;;;;5091120;28;19968;-74
2024/01/23 03:56:13;;;;;;;;;;;21.50;37.60;;;;;;5091259;28;19927;-71
2024/01/23 03:58:40;;;;;;;;;;;21.60;37.50;;;;;;5091286;28;19927;-71
2024/01/23 04:01:05;;;;;;;;;;;21.60;37.50;;;;;;5091164;28;19939;-71
2024/01/23 04:03:31;;;;;;;;;;;21.60;37.40;;;;;;5091348;28;19924;-71
2024/01/23 04:06:02;;;;;;;;;;;21.60;37.50;;;;;;5091232;28;20298;-71
2024/01/23 04:08:28;;;;;;;;;;;21.60;37.40;;;;;;5090940;28;19927;-71
2024/01/23 04:10:54;;;;;;;;;;;21.60;37.40;;;;;;5092200;28;19920;-71
2024/01/23 04:13:19;;;;;;;;;;;21.60;37.40;;;;;;5091203;28;19924;-71
2024/01/23 04:15:45;;;;;;;;;;;21.60;37.30;;;;;;5092116;28;19977;-71
2024/01/23 04:18:10;;;;;;;;;;;21.60;37.30;;;;;;5091168;28;20003;-71
2024/01/23 04:20:40;;;;;;;;;;;21.60;37.30;;;;;;5090809;28;19920;-71
2024/01/23 04:23:05;;;;;;;;;;;21.60;37.40;;;;;;5091517;28;19920;-71
2024/01/23 04:25:31;;;;;;;;;;;21.60;37.30;;;;;;5095034;28;19984;-71
2024/01/23 04:27:57;;;;;;;;;;;21.60;37.40;;;;;;5094715;28;20388;-71
2024/01/23 04:30:23;;;;;;;;;;;21.50;37.30;;;;;;5095924;28;20414;-71
2024/01/23 04:32:48;;;;;;;;;;;21.50;37.40;;;;;;5096070;28;19920;-71
2024/01/23 04:35:14;;;;;;;;;;;21.50;37.40;;;;;;5095050;28;20283;-71
2024/01/23 04:37:39;;;;;;;;;;;21.50;37.40;;;;;;5094489;28;20394;-71
2024/01/23 04:40:07;;;;;;;;;;;21.50;37.40;;;;;;5095616;28;19920;-71
2024/01/23 04:42:36;;;;;;;;;;;21.50;37.40;;;;;;5094331;28;19946;-71
2024/01/23 04:45:03;;;;;;;;;;;21.50;37.40;;;;;;5094390;28;19928;-71
2024/01/23 04:47:28;;;;;;;;;;;21.50;37.40;;;;;;5094623;28;19924;-71
2024/01/23 04:49:54;;;;;;;;;;;21.50;37.40;;;;;;5095567;28;20382;-71
2024/01/23 04:52:20;;;;;;;;;;;21.50;37.30;;;;;;5094549;28;19965;-71
2024/01/23 04:54:45;;;;;;;;;;;21.60;37.30;;;;;;5095463;28;20371;-70
2024/01/23 04:57:11;;;;;;;;;;;21.50;37.20;;;;;;5094135;28;19924;-71
2024/01/23 04:59:37;;;;;;;;;;;21.60;37.20;;;;;;5094371;28;19920;-71
2024/01/23 05:02:04;;;;;;;;;;;21.60;37.20;;;;;;5094075;28;20440;-71
2024/01/23 05:04:29;;;;;;;;;;;21.60;37.20;;;;;;5094314;28;19923;-71
2024/01/23 05:06:55;;;;;;;;;;;21.60;37.10;;;;;;5094241;28;20031;-71
2024/01/23 05:09:21;;;;;;;;;;;21.60;37.10;;;;;;5095327;28;20355;-71
2024/01/23 05:11:46;;;;;;;;;;;21.60;37.10;;;;;;5093911;28;20019;-71
2024/01/23 05:14:12;;;;;;;;;;;21.60;37.00;;;;;;5093837;28;19920;-71
2024/01/23 05:16:38;;;;;;;;;;;21.60;37.00;;;;;;5094041;28;19924;-71
2024/01/23 05:19:04;;;;;;;;;;;21.70;37.00;;;;;;5093735;28;20069;-71
2024/01/23 05:21:29;;;;;;;;;;;21.70;36.90;;;;;;5094011;28;19928;-71
2024/01/23 05:23:55;;;;;;;;;;;21.80;36.80;;;;;;5093934;28;19965;-71
2024/01/23 05:26:20;;;;;;;;;;;21.90;36.70;;;;;;5095003;28;20440;-71
2024/01/23 05:28:46;;;;;;;;;;;21.90;36.60;;;;;;5093879;28;20382;-71
2024/01/23 05:31:12;;;;;;;;;;;22.00;36.50;;;;;;5093752;28;20275;-71
2024/01/23 05:33:37;;;;;;;;;;;22.00;36.30;;;;;;5093199;28;19973;-71
2024/01/23 05:36:03;;;;;;;;;;;22.10;36.30;;;;;;5093393;28;19947;-71
2024/01/23 05:38:28;;;;;;;;;;;22.10;36.20;;;;;;5093504;28;19920;-71
2024/01/23 05:40:54;;;;;;;;;;;22.20;36.30;;;;;;5094389;28;19930;-71
2024/01/23 05:43:20;;;;;;;;;;;22.20;36.20;;;;;;5093185;28;19920;-71
2024/01/23 05:45:45;;;;;;;;;;;22.10;36.10;;;;;;5094485;28;19966;-71
2024/01/23 05:48:11;;;;;;;;;;;22.10;36.10;;;;;;5093132;28;20282;-71
2024/01/23 05:50:36;;;;;;;;;;;22.10;36.10;;;;;;5093301;28;20020;-71
2024/01/23 05:53:02;;;;;;;;;;;22.10;36.10;;;;;;5094507;28;20016;-71
2024/01/23 05:55:27;;;;;;;;;;;22.10;36.20;;;;;;5093406;28;20019;-72
2024/01/23 05:57:53;;;;;;;;;;;22.10;36.10;;;;;;5094357;28;19920;-71
2024/01/23 06:00:19;;;;;;;;;;;22.10;36.20;;;;;;5127002;27;19924;-71
2024/01/23 06:02:44;;;;;;;;;;;22.10;36.30;;;;;;5092843;28;20318;-70
2024/01/23 06:05:10;;;;;;;;;;;22.00;36.20;;;;;;5093039;28;19924;-71
2024/01/23 06:07:38;;;;;;;;;;;22.00;36.30;;;;;;5092893;28;20371;-71
2024/01/23 06:10:04;;;;;;;;;;;22.00;36.20;;;;;;5092681;28;19920;-71
2024/01/23 06:12:30;;;;;;;;;;;22.00;36.30;;;;;;5094095;28;19928;-71
2024/01/23 06:14:55;;;;;;;;;;;22.00;36.30;;;;;;5127064;27;19932;-71
2024/01/23 06:17:21;;;;;;;;;;;21.90;36.30;;;;;;5093840;28;20361;-72
2024/01/23 06:19:46;;;;;;;;;;;21.90;36.30;;;;;;5093884;28;20379;-71
2024/01/23 06:22:13;;;;;;;;;;;21.90;36.30;;;;;;5092847;28;19928;-71
2024/01/23 06:24:59;;;;;;;;;;;21.90;36.30;;;;;;5092792;28;19920;-71
2024/01/23 06:27:24;;;;;;;;;;;21.90;36.30;;;;;;5092704;28;19920;-72
2024/01/23 06:29:50;;;;;;;;;;;21.90;36.30;;;;;;5092634;28;19920;-71
2024/01/23 06:32:15;;;;;;;;;;;21.90;36.30;;;;;;5093610;28;20303;-71
2024/01/23 06:34:41;;;;;;;;;;;21.80;36.20;;;;;;5125565;27;20181;-71
2024/01/23 06:37:06;;;;;;;;;;;21.90;36.30;;;;;;5089835;28;20456;-70
2024/01/23 06:39:32;;;;;;;;;;;21.90;36.40;;;;;;5091309;28;19920;-70
2024/01/23 06:41:57;;;;;;;;;;;21.80;36.40;;;;;;5089081;28;19972;-70
2024/01/23 06:44:23;;;;;;;;;;;21.60;36.40;;;;;;5088605;28;20246;-70
2024/01/23 06:46:54;;;;;;;;;;;21.50;36.70;;;;;;5085834;28;20010;-69
2024/01/23 06:49:20;;;;;;;;;;;21.50;37.00;;;;;;5089036;28;19924;-71
2024/01/23 06:51:45;;;;;;;;;;;21.50;37.30;;;;;;5089538;28;19970;-71
2024/01/23 06:54:11;;;;;;;;;;;21.50;37.40;;;;;;5088620;28;19961;-71
2024/01/23 06:56:39;;;;;;;;;;;21.50;37.50;;;;;;5086143;28;19924;-69
2024/01/23 06:59:05;;;;;;;;;;;21.60;37.60;;;;;;5080789;28;19928;-73
2024/01/23 07:01:30;;;;;;;;;;;21.70;37.50;;;;;;5077684;28;20367;-73
2024/01/23 07:03:56;;;;;;;;;;;21.80;37.40;;;;;;5084435;28;20260;-69
2024/01/23 07:06:22;;;;;;;;;;;22.00;37.30;;;;;;5083827;28;19924;-69
2024/01/23 07:08:47;;;;;;;;;;;22.00;37.10;;;;;;5093985;28;19927;-70
2024/01/23 07:11:13;;;;;;;;;;;22.20;37.00;;;;;;5087911;28;19924;-69
2024/01/23 07:13:39;;;;;;;;;;;22.20;36.90;;;;;;5092203;28;20339;-70
2024/01/23 07:16:05;;;;;;;;;;;22.20;37.20;;;;;;5090639;28;20358;-69
2024/01/23 07:18:30;;;;;;;;;;;22.20;36.90;;;;;;5091560;28;19924;-71
2024/01/23 07:20:56;;;;;;;;;;;22.20;37.00;;;;;;5084837;28;19935;-72
2024/01/23 07:23:21;;;;;;;;;;;22.20;37.10;;;;;;5082877;28;19928;-71
2024/01/23 07:25:47;;;;;;;;;;;22.20;37.10;;;;;;5074392;28;19924;-71
2024/01/23 07:28:13;;;;;;;;;;;22.10;37.00;;;;;;5078894;28;19943;-70
2024/01/23 07:30:38;;;;;;;;;;;22.10;37.10;;;;;;5070425;28;19990;-72
2024/01/23 07:33:04;;;;;;;;;;;22.10;37.00;;;;;;5072266;28;19931;-73
2024/01/23 07:35:29;;;;;;;;;;;22.20;37.00;;;;;;5073271;28;19928;-72
2024/01/23 07:37:55;;;;;;;;;;;22.20;37.00;;;;;;5070776;28;20506;-71
2024/01/23 07:40:21;;;;;;;;;;;22.20;36.90;;;;;;5073692;28;20015;-71
2024/01/23 07:42:46;;;;;;;;;;;22.20;37.00;;;;;;5075206;28;20074;-73
2024/01/23 07:45:12;;;;;;;;;;;22.20;37.10;;;;;;5075841;28;20497;-72
2024/01/23 07:47:37;;;;;;;;;;;22.00;37.40;;;;;;5076045;28;19967;-69
2024/01/23 07:50:03;;;;;;;;;;;21.70;36.90;;;;;;5072784;28;20224;-71
2024/01/23 07:52:31;;;;;;;;;;;21.60;37.40;;;;;;5075747;28;20151;-70
2024/01/23 07:54:57;;;;;;;;;;;21.60;38.20;;;;;;5077467;28;19924;-70
2024/01/23 07:57:22;;;;;;;;;;;21.60;37.50;;;;;;5074289;28;19981;-71
2024/01/23 07:59:48;;;;;;;;;;;21.70;37.50;;;;;;5075936;28;19931;-73
2024/01/23 08:02:13;;;;;;;;;;;21.80;37.40;;;;;;5078902;28;19924;-73
2024/01/23 08:04:39;;;;;;;;;;;21.80;37.30;;;;;;5077660;28;19928;-69
2024/01/23 08:07:04;;;;;;;;;;;21.80;37.30;;;;;;5077737;28;19953;-71
2024/01/23 08:09:30;;;;;;;;;;;21.90;37.30;;;;;;5080286;27;19924;-69
2024/01/23 08:11:55;;;;;;;;;;;21.90;37.20;;;;;;5076913;28;19924;-69
2024/01/23 08:14:22;;;;;;;;;;;22.00;37.10;;;;;;5078817;28;19931;-68
2024/01/23 08:16:47;;;;;;;;;;;22.00;37.00;;;;;;5085624;28;20173;-69
2024/01/23 08:19:16;;;;;;;;;;;22.10;37.00;;;;;;5079601;28;19927;-71
2024/01/23 08:21:41;;;;;;;;;;;22.10;37.10;;;;;;5111812;27;19925;-68
2024/01/23 08:24:07;;;;;;;;;;;22.10;37.10;;;;;;5082750;28;19924;-68
2024/01/23 08:26:33;;;;;;;;;;;22.10;37.30;;;;;;5076725;28;20002;-68
2024/01/23 08:28:59;;;;;;;;;;;22.10;37.40;;;;;;5079513;28;19924;-69
2024/01/23 08:31:24;;;;;;;;;;;22.10;37.50;;;;;;5079051;28;19963;-71
2024/01/23 08:33:50;;;;;;;;;;;22.20;37.60;;;;;;5078949;28;19927;-71
2024/01/23 08:36:16;;;;;;;;;;;22.20;37.70;;;;;;5080128;28;19924;-70
2024/01/23 08:38:43;;;;;;;;;;;22.10;37.80;;;;;;5077719;28;19947;-71
2024/01/23 08:41:09;;;;;;;;;;;22.00;37.80;;;;;;5077414;28;19993;-69
2024/01/23 08:43:34;;;;;;;;;;;21.80;38.40;;;;;;5080336;28;20600;-69
2024/01/23 08:46:00;;;;;;;;;;;21.60;38.20;;;;;;5075822;28;19924;-67
2024/01/23 08:48:25;;;;;;;;;;;21.60;38.60;;;;;;5066490;28;19961;-67
2024/01/23 08:50:51;;;;;;;;;;;21.70;38.80;;;;;;5072217;28;19928;-70
2024/01/23 08:53:17;;;;;;;;;;;22.10;39.10;;;;;;5074160;28;19924;-68
2024/01/23 08:55:43;;;;;;;;;;;22.50;39.90;;;;;;5075763;28;20437;-69
2024/01/23 08:58:09;;;;;;;;;;;23.00;39.30;;;;;;5078435;28;19978;-68
2024/01/23 09:00:34;;;;;;;;;;;23.60;38.80;;;;;;5112458;27;20418;-68
2024/01/23 09:03:00;;;;;;;;;;;24.20;38.00;;;;;;5075355;28;19959;-71
2024/01/23 09:05:25;;;;;;;;;;;24.70;37.40;;;;;;5076195;28;19925;-72
2024/01/23 09:07:51;;;;;;;;;;;25.30;36.20;;;;;;5084950;28;20917;-69
2024/01/23 09:10:16;;;;;;;;;;;25.60;36.10;;;;;;5078144;28;19920;-68
2024/01/23 09:12:42;;;;;;;;;;;25.90;36.10;;;;;;5075486;28;19931;-68
2024/01/23 09:15:09;;;;;;;;;;;26.10;35.70;;;;;;5082922;28;19924;-70
2024/01/23 09:17:35;;;;;;;;;;;26.40;35.50;;;;;;5071101;28;19925;-70
2024/01/23 09:20:01;;;;;;;;;;;26.60;35.40;;;;;;5076474;28;20335;-69
2024/01/23 09:22:28;;;;;;;;;;;26.80;35.30;;;;;;5074833;28;19938;-68
2024/01/23 09:24:54;;;;;;;;;;;27.00;34.60;;;;;;5073059;28;19924;-68
2024/01/23 09:27:22;;;;;;;;;;;27.00;33.30;;;;;;5085700;28;19920;-70
2024/01/23 09:29:48;;;;;;;;;;;26.90;33.30;;;;;;5075814;28;19924;-68
2024/01/23 09:32:13;;;;;;;;;;;26.80;33.30;;;;;;5075785;28;20292;-69
2024/01/23 09:34:39;;;;;;;;;;;27.00;33.20;;;;;;5077987;28;20465;-69
2024/01/23 09:37:04;;;;;;;;;;;27.10;33.10;;;;;;5072424;28;19920;-69
2024/01/23 09:39:30;;;;;;;;;;;27.10;32.60;;;;;;5078109;28;19924;-68
2024/01/23 09:41:59;;;;;;;;;;;27.00;31.90;;;;;;5073990;28;19924;-69
2024/01/23 09:44:24;;;;;;;;;;;26.80;32.30;;;;;;5080107;28;20426;-68
2024/01/23 09:46:51;;;;;;;;;;;26.80;32.70;;;;;;5077110;28;19924;-69
2024/01/23 09:49:17;;;;;;;;;;;26.90;32.70;;;;;;5076303;28;19930;-72
2024/01/23 09:51:43;;;;;;;;;;;26.90;32.80;;;;;;5075473;28;20256;-69
2024/01/23 09:54:10;;;;;;;;;;;26.90;32.40;;;;;;5073647;28;20389;-69
2024/01/23 09:56:36;;;;;;;;;;;26.90;32.00;;;;;;5074487;28;20453;-69
2024/01/23 09:59:03;;;;;;;;;;;26.80;31.90;;;;;;5076752;28;19928;-69
2024/01/23 10:01:29;;;;;;;;;;;26.80;32.20;;;;;;5070071;28;19956;-70
2024/01/23 10:03:57;;;;;;;;;;;26.90;32.30;;;;;;5072323;28;19924;-69
2024/01/23 10:06:23;;;;;;;;;;;26.80;32.00;;;;;;5077841;28;19924;-69
2024/01/23 10:08:49;;;;;;;;;;;26.60;31.80;;;;;;5107518;27;19931;-69
2024/01/23 10:11:14;;;;;;;;;;;26.40;32.00;;;;;;5072712;28;19924;-69
2024/01/23 10:13:41;;;;;;;;;;;26.30;32.20;;;;;;5074479;28;20280;-67
2024/01/23 10:16:06;;;;;;;;;;;26.20;32.20;;;;;;5081264;28;19925;-70
2024/01/23 10:18:32;;;;;;;;;;;26.30;32.40;;;;;;5070748;28;20003;-68
2024/01/23 10:20:58;;;;;;;;;;;26.20;32.50;;;;;;5078332;28;20626;-70
2024/01/23 10:23:28;;;;;;;;;;;26.30;32.50;;;;;;5076548;28;19963;-68
2024/01/23 10:25:58;;;;;;;;;;;26.30;32.50;;;;;;5076351;28;20055;-69
2024/01/23 10:28:26;;;;;;;;;;;26.30;32.70;;;;;;5073140;28;20348;-69
2024/01/23 10:30:53;;;;;;;;;;;26.30;32.50;;;;;;5074299;28;19924;-68
2024/01/23 10:33:18;;;;;;;;;;;26.30;32.60;;;;;;5069938;28;20469;-68
2024/01/23 10:35:44;;;;;;;;;;;26.40;31.90;;;;;;5070595;28;19928;-69
2024/01/23 10:38:10;;;;;;;;;;;26.30;31.70;;;;;;5075230;28;19931;-69
2024/01/23 10:40:37;;;;;;;;;;;26.10;31.80;;;;;;5077562;28;20404;-69
2024/01/23 10:43:06;;;;;;;;;;;25.90;31.90;;;;;;5071121;28;19982;-67
2024/01/23 10:45:32;;;;;;;;;;;25.70;32.00;;;;;;5074832;28;19924;-67
2024/01/23 10:48:00;;;;;;;;;;;25.60;32.60;;;;;;5071167;28;19932;-70
2024/01/23 10:50:25;;;;;;;;;;;25.60;32.60;;;;;;5076929;28;19920;-69
2024/01/23 10:52:53;;;;;;;;;;;25.50;32.80;;;;;;5069916;28;20375;-69
2024/01/23 10:55:21;;;;;;;;;;;25.40;32.90;;;;;;5071156;28;20398;-66
2024/01/23 10:57:47;;;;;;;;;;;25.30;33.00;;;;;;5077411;28;20260;-67
2024/01/23 11:00:16;;;;;;;;;;;25.30;33.10;;;;;;5069267;28;20016;-68
2024/01/23 11:02:45;;;;;;;;;;;25.30;34.00;;;;;;5069268;28;19983;-68
2024/01/23 11:05:11;;;;;;;;;;;25.30;33.00;;;;;;5072955;28;20027;-68
2024/01/23 11:07:42;;;;;;;;;;;25.20;32.90;;;;;;5077553;28;20030;-68
2024/01/23 11:12:57;;;;;;;;;;;25.20;33.10;;;;;;5098838;27;19924;-68
2024/01/23 11:15:23;;;;;;;;;;;25.10;33.00;;;;;;5079628;28;20300;-67
2024/01/23 11:17:48;;;;;;;;;;;25.10;33.10;;;;;;5078142;28;19924;-66
2024/01/23 11:20:16;;;;;;;;;;;25.10;33.10;;;;;;5074270;28;20398;-68
2024/01/23 11:22:42;;;;;;;;;;;25.00;33.00;;;;;;5077998;28;20645;-68
2024/01/23 11:25:09;;;;;;;;;;;24.90;33.00;;;;;;5073245;28;19920;-68
2024/01/23 11:27:37;;;;;;;;;;;24.80;32.70;;;;;;5077219;28;19930;-67
2024/01/23 11:30:10;;;;;;;;;;;24.70;33.00;;;;;;5076093;28;19932;-68
2024/01/23 11:32:35;;;;;;;;;;;24.60;32.80;;;;;;5076494;28;19928;-68
2024/01/23 11:35:02;;;;;;;;;;;24.60;32.90;;;;;;5080014;28;19928;-68
2024/01/23 11:43:21;;;;;;;;;;;24.80;32.70;;;;;;5091023;27;19941;-66
2024/01/23 11:45:48;;;;;;;;;;;24.90;32.50;;;;;;5118052;27;19928;-70
2024/01/23 11:48:15;;;;;;;;;;;25.00;32.50;;;;;;5120864;27;20136;-70
2024/01/23 11:50:43;;;;;;;;;;;25.10;32.50;;;;;;5101140;28;20358;-69
2024/01/23 11:53:10;;;;;;;;;;;25.20;32.60;;;;;;5089810;28;19945;-66
2024/01/23 11:55:36;;;;;;;;;;;25.30;32.50;;;;;;5094411;28;20358;-67
2024/01/23 11:58:02;;;;;;;;;;;25.40;32.40;;;;;;5096211;28;20355;-69
2024/01/23 12:00:28;;;;;;;;;;;25.60;32.30;;;;;;5089224;28;19924;-68
2024/01/23 12:02:54;;;;;;;;;;;25.70;32.20;;;;;;5089428;28;19928;-67
2024/01/23 12:05:20;;;;;;;;;;;25.90;32.30;;;;;;5089938;28;19929;-68
2024/01/23 12:07:45;;;;;;;;;;;26.00;32.20;;;;;;5071039;28;20378;-68
2024/01/23 12:10:13;;;;;;;;;;;26.10;32.20;;;;;;5089419;28;20344;-66
2024/01/23 12:12:40;;;;;;;;;;;26.20;31.90;;;;;;5088049;28;19978;-67
2024/01/23 12:15:06;;;;;;;;;;;26.40;32.20;;;;;;5090633;28;19935;-69
2024/01/23 12:17:33;;;;;;;;;;;26.40;32.20;;;;;;5082556;28;19924;-68
2024/01/23 12:20:02;;;;;;;;;;;26.40;32.30;;;;;;5085243;28;19920;-68
2024/01/23 12:22:27;;;;;;;;;;;26.40;32.40;;;;;;5092380;28;20383;-67
2024/01/23 12:24:53;;;;;;;;;;;26.40;32.30;;;;;;5091873;28;21540;-67
2024/01/23 12:27:19;;;;;;;;;;;26.50;32.30;;;;;;5093729;28;20252;-69
2024/01/23 12:29:44;;;;;;;;;;;26.50;32.40;;;;;;5090863;28;19927;-68
2024/01/23 12:32:10;;;;;;;;;;;26.40;32.30;;;;;;5093007;28;19982;-68
2024/01/23 12:34:36;;;;;;;;;;;26.50;32.40;;;;;;5094483;28;20453;-69
2024/01/23 12:37:02;;;;;;;;;;;26.40;32.40;;;;;;5086059;28;19982;-66
2024/01/23 12:39:27;;;;;;;;;;;26.40;32.60;;;;;;5117483;27;20375;-68
2024/01/23 12:41:53;;;;;;;;;;;26.40;32.80;;;;;;5086051;28;19932;-66
2024/01/23 12:44:19;;;;;;;;;;;26.40;32.80;;;;;;5070969;28;20397;-67
2024/01/23 12:46:44;;;;;;;;;;;26.30;32.70;;;;;;5084818;28;19951;-67
2024/01/23 12:49:10;;;;;;;;;;;26.30;32.80;;;;;;5086347;28;19923;-69
2024/01/23 12:51:36;;;;;;;;;;;26.20;32.90;;;;;;5087409;28;20604;-68
2024/01/23 12:54:08;;;;;;;;;;;26.20;33.00;;;;;;5077951;28;19932;-66
2024/01/23 12:56:33;;;;;;;;;;;26.20;33.20;;;;;;5079677;28;19943;-68
2024/01/23 12:58:59;;;;;;;;;;;26.10;33.20;;;;;;5076721;28;19928;-68
2024/01/23 13:01:24;;;;;;;;;;;26.00;33.30;;;;;;5067675;28;19932;-68
2024/01/23 13:03:50;;;;;;;;;;;26.00;33.40;;;;;;5076759;28;19955;-69
2024/01/23 13:06:16;;;;;;;;;;;26.00;33.40;;;;;;5067041;28;20019;-69
2024/01/23 13:08:41;;;;;;;;;;;26.10;33.70;;;;;;5070255;28;19924;-69
2024/01/23 13:11:07;;;;;;;;;;;26.10;33.80;;;;;;5074018;28;20012;-69
2024/01/23 13:13:32;;;;;;;;;;;26.30;34.00;;;;;;5070645;28;20231;-67
2024/01/23 13:15:58;;;;;;;;;;;26.40;33.90;;;;;;5064056;28;19931;-70
2024/01/23 13:18:24;;;;;;;;;;;26.60;33.40;;;;;;5085599;28;19932;-68
2024/01/23 13:20:49;;;;;;;;;;;26.70;33.50;;;;;;5071226;28;19928;-67
2024/01/23 13:23:17;;;;;;;;;;;26.80;33.60;;;;;;5076697;28;20413;-67
2024/01/23 13:25:46;;;;;;;;;;;27.00;33.50;;;;;;5075045;28;20358;-68
2024/01/23 13:28:11;;;;;;;;;;;27.10;33.50;;;;;;5077809;28;20309;-66
2024/01/23 13:30:37;;;;;;;;;;;27.20;33.30;;;;;;5076033;28;19928;-68
2024/01/23 13:33:03;;;;;;;;;;;27.20;33.50;;;;;;5074227;28;20465;-68
2024/01/23 13:35:28;;;;;;;;;;;27.30;33.20;;;;;;5072888;28;20287;-67
2024/01/23 13:37:55;;;;;;;;;;;27.40;33.20;;;;;;5076199;28;20405;-66
2024/01/23 13:40:21;;;;;;;;;;;27.40;33.10;;;;;;5072521;28;19928;-67
2024/01/23 13:42:46;;;;;;;;;;;27.30;32.80;;;;;;5063349;28;20502;-67
2024/01/23 13:45:12;;;;;;;;;;;27.20;32.80;;;;;;5070225;28;20214;-67
2024/01/23 13:47:41;;;;;;;;;;;27.00;32.80;;;;;;5056305;28;19920;-66
2024/01/23 13:50:06;;;;;;;;;;;26.80;32.80;;;;;;5074069;28;20279;-68
2024/01/23 13:52:32;;;;;;;;;;;26.70;32.90;;;;;;5079949;28;20320;-69
2024/01/23 13:54:58;;;;;;;;;;;26.50;33.00;;;;;;5077037;28;19920;-68
2024/01/23 13:57:24;;;;;;;;;;;26.40;33.10;;;;;;5078536;28;19931;-71
2024/01/23 13:59:49;;;;;;;;;;;26.40;33.30;;;;;;5051621;28;20365;-69
2024/01/23 14:02:15;;;;;;;;;;;26.40;33.30;;;;;;5048796;28;20330;-68
2024/01/23 14:04:41;;;;;;;;;;;26.20;33.30;;;;;;5071269;28;19920;-69
2024/01/23 14:07:07;;;;;;;;;;;26.00;34.10;;;;;;5073350;28;20395;-70
2024/01/23 14:09:33;;;;;;;;;;;25.80;33.50;;;;;;5077633;28;20028;-70
2024/01/23 14:11:58;;;;;;;;;;;25.50;33.50;;;;;;5102292;27;20407;-69
2024/01/23 14:14:24;;;;;;;;;;;25.10;33.50;;;;;;5078365;28;19916;-72
2024/01/23 14:16:50;;;;;;;;;;;24.80;33.80;;;;;;5070507;28;20716;-72
2024/01/23 14:19:15;;;;;;;;;;;24.50;34.00;;;;;;5075014;28;19927;-73